sensor_id;sensor_type;location;lat;lon;timestamp;P1;durP1;ratioP1;P2;durP2;ratioP2
14722;SDS011;7452;55.594;12.986;2022-10-23T00:01:57;108.93;;;38.17;;
14722;SDS011;7452;55.594;12.986;2022-10-23T00:04:26;101.00;;;36.67;;
14722;SDS011;7452;55.594;12.986;2022-10-23T00:07:02;102.67;;;36.97;;
14722;SDS011;7452;55.594;12.986;2022-10-23T00:09:33;108.83;;;37.07;;
14722;SDS011;7452;55.594;12.986;2022-10-23T00:12:04;109.87;;;37.53;;
14722;SDS011;7452;55.594;12.986;2022-10-23T00:14:32;95.27;;;35.70;;
14722;SDS011;7452;55.594;12.986;2022-10-23T00:17:04;95.70;;;34.77;;
14722;SDS011;7452;55.594;12.986;2022-10-23T00:19:41;86.80;;;32.73;;
14722;SDS011;7452;55.594;12.986;2022-10-23T00:22:10;74.90;;;28.17;;
14722;SDS011;7452;55.594;12.986;2022-10-23T00:24:41;68.03;;;26.77;;
14722;SDS011;7452;55.594;12.986;2022-10-23T00:27:10;69.53;;;27.17;;
14722;SDS011;7452;55.594;12.986;2022-10-23T00:29:40;60.73;;;24.10;;
14722;SDS011;7452;55.594;12.986;2022-10-23T00:32:09;58.17;;;22.20;;
14722;SDS011;7452;55.594;12.986;2022-10-23T00:34:37;51.40;;;21.80;;
14722;SDS011;7452;55.594;12.986;2022-10-23T00:37:19;47.97;;;19.57;;
14722;SDS011;7452;55.594;12.986;2022-10-23T00:39:48;60.50;;;21.20;;
14722;SDS011;7452;55.594;12.986;2022-10-23T00:42:19;50.00;;;21.10;;
14722;SDS011;7452;55.594;12.986;2022-10-23T00:47:47;48.33;;;20.30;;
14722;SDS011;7452;55.594;12.986;2022-10-23T00:50:17;54.03;;;22.57;;
14722;SDS011;7452;55.594;12.986;2022-10-23T00:52:52;53.73;;;23.40;;
14722;SDS011;7452;55.594;12.986;2022-10-23T00:55:21;52.80;;;23.23;;
14722;SDS011;7452;55.594;12.986;2022-10-23T00:57:56;38.90;;;19.17;;
14722;SDS011;7452;55.594;12.986;2022-10-23T01:00:25;42.50;;;20.57;;
14722;SDS011;7452;55.594;12.986;2022-10-23T01:02:54;41.33;;;19.93;;
14722;SDS011;7452;55.594;12.986;2022-10-23T01:05:24;41.73;;;20.13;;
14722;SDS011;7452;55.594;12.986;2022-10-23T01:07:58;45.00;;;19.63;;
14722;SDS011;7452;55.594;12.986;2022-10-23T01:10:33;35.43;;;18.93;;
14722;SDS011;7452;55.594;12.986;2022-10-23T01:13:18;35.67;;;18.33;;
14722;SDS011;7452;55.594;12.986;2022-10-23T01:15:58;33.97;;;16.87;;
14722;SDS011;7452;55.594;12.986;2022-10-23T01:18:34;36.20;;;18.03;;
14722;SDS011;7452;55.594;12.986;2022-10-23T01:21:08;35.03;;;18.70;;
14722;SDS011;7452;55.594;12.986;2022-10-23T01:23:59;39.30;;;19.50;;
14722;SDS011;7452;55.594;12.986;2022-10-23T01:26:50;36.00;;;20.30;;
14722;SDS011;7452;55.594;12.986;2022-10-23T01:29:27;40.10;;;21.03;;
14722;SDS011;7452;55.594;12.986;2022-10-23T01:32:02;45.07;;;22.40;;
14722;SDS011;7452;55.594;12.986;2022-10-23T01:34:34;42.73;;;22.30;;
14722;SDS011;7452;55.594;12.986;2022-10-23T01:37:13;47.07;;;23.33;;
14722;SDS011;7452;55.594;12.986;2022-10-23T01:39:47;47.80;;;24.17;;
14722;SDS011;7452;55.594;12.986;2022-10-23T01:42:23;46.73;;;24.17;;
14722;SDS011;7452;55.594;12.986;2022-10-23T01:45:00;50.23;;;24.90;;
14722;SDS011;7452;55.594;12.986;2022-10-23T01:47:33;55.47;;;26.87;;
14722;SDS011;7452;55.594;12.986;2022-10-23T01:50:02;55.13;;;26.93;;
14722;SDS011;7452;55.594;12.986;2022-10-23T01:52:33;58.33;;;26.30;;
14722;SDS011;7452;55.594;12.986;2022-10-23T01:55:00;64.20;;;27.03;;
14722;SDS011;7452;55.594;12.986;2022-10-23T01:57:30;61.67;;;28.87;;
14722;SDS011;7452;55.594;12.986;2022-10-23T02:00:10;62.43;;;27.80;;
14722;SDS011;7452;55.594;12.986;2022-10-23T02:02:39;64.93;;;29.07;;
14722;SDS011;7452;55.594;12.986;2022-10-23T02:05:11;60.67;;;27.23;;
14722;SDS011;7452;55.594;12.986;2022-10-23T02:07:43;63.30;;;29.27;;
14722;SDS011;7452;55.594;12.986;2022-10-23T02:10:15;55.70;;;27.07;;
14722;SDS011;7452;55.594;12.986;2022-10-23T02:12:53;68.43;;;28.57;;
14722;SDS011;7452;55.594;12.986;2022-10-23T02:15:32;58.97;;;28.40;;
14722;SDS011;7452;55.594;12.986;2022-10-23T02:18:05;61.90;;;27.60;;
14722;SDS011;7452;55.594;12.986;2022-10-23T02:20:41;57.73;;;27.40;;
14722;SDS011;7452;55.594;12.986;2022-10-23T02:23:14;59.80;;;27.43;;
14722;SDS011;7452;55.594;12.986;2022-10-23T02:25:48;54.50;;;26.90;;
14722;SDS011;7452;55.594;12.986;2022-10-23T02:28:21;60.23;;;28.33;;
14722;SDS011;7452;55.594;12.986;2022-10-23T02:31:02;60.40;;;29.17;;
14722;SDS011;7452;55.594;12.986;2022-10-23T02:33:35;58.50;;;28.13;;
14722;SDS011;7452;55.594;12.986;2022-10-23T02:36:04;57.87;;;28.93;;
14722;SDS011;7452;55.594;12.986;2022-10-23T02:38:33;71.83;;;29.33;;
14722;SDS011;7452;55.594;12.986;2022-10-23T02:43:56;59.77;;;27.83;;
14722;SDS011;7452;55.594;12.986;2022-10-23T02:46:43;58.67;;;27.83;;
14722;SDS011;7452;55.594;12.986;2022-10-23T02:49:18;55.30;;;29.47;;
14722;SDS011;7452;55.594;12.986;2022-10-23T02:51:56;57.40;;;28.27;;
14722;SDS011;7452;55.594;12.986;2022-10-23T02:54:39;55.93;;;27.50;;
14722;SDS011;7452;55.594;12.986;2022-10-23T02:57:18;54.97;;;28.03;;
14722;SDS011;7452;55.594;12.986;2022-10-23T02:59:54;55.23;;;28.53;;
14722;SDS011;7452;55.594;12.986;2022-10-23T03:02:31;50.47;;;27.07;;
14722;SDS011;7452;55.594;12.986;2022-10-23T03:05:05;50.87;;;26.33;;
14722;SDS011;7452;55.594;12.986;2022-10-23T03:07:35;49.97;;;25.90;;
14722;SDS011;7452;55.594;12.986;2022-10-23T03:10:09;49.93;;;25.50;;
14722;SDS011;7452;55.594;12.986;2022-10-23T03:12:39;47.30;;;25.97;;
14722;SDS011;7452;55.594;12.986;2022-10-23T03:15:12;46.10;;;24.67;;
14722;SDS011;7452;55.594;12.986;2022-10-23T03:17:42;44.30;;;24.90;;
14722;SDS011;7452;55.594;12.986;2022-10-23T03:20:11;44.10;;;23.03;;
14722;SDS011;7452;55.594;12.986;2022-10-23T03:22:39;45.47;;;22.93;;
14722;SDS011;7452;55.594;12.986;2022-10-23T03:25:11;43.07;;;22.70;;
14722;SDS011;7452;55.594;12.986;2022-10-23T03:27:40;40.97;;;21.87;;
14722;SDS011;7452;55.594;12.986;2022-10-23T03:30:08;37.30;;;21.83;;
14722;SDS011;7452;55.594;12.986;2022-10-23T03:32:36;51.33;;;21.40;;
14722;SDS011;7452;55.594;12.986;2022-10-23T03:35:14;41.87;;;21.37;;
14722;SDS011;7452;55.594;12.986;2022-10-23T03:37:44;38.83;;;20.17;;
14722;SDS011;7452;55.594;12.986;2022-10-23T03:40:13;41.17;;;21.50;;
14722;SDS011;7452;55.594;12.986;2022-10-23T03:42:42;35.97;;;21.03;;
14722;SDS011;7452;55.594;12.986;2022-10-23T03:45:10;40.70;;;20.93;;
14722;SDS011;7452;55.594;12.986;2022-10-23T03:47:47;43.70;;;20.00;;
14722;SDS011;7452;55.594;12.986;2022-10-23T03:50:18;37.03;;;20.30;;
14722;SDS011;7452;55.594;12.986;2022-10-23T03:52:48;40.87;;;19.57;;
14722;SDS011;7452;55.594;12.986;2022-10-23T03:55:17;37.50;;;19.77;;
14722;SDS011;7452;55.594;12.986;2022-10-23T03:57:45;40.50;;;19.77;;
14722;SDS011;7452;55.594;12.986;2022-10-23T04:00:13;37.33;;;19.23;;
14722;SDS011;7452;55.594;12.986;2022-10-23T04:02:41;32.63;;;18.13;;
14722;SDS011;7452;55.594;12.986;2022-10-23T04:05:23;38.67;;;18.87;;
14722;SDS011;7452;55.594;12.986;2022-10-23T04:07:52;38.30;;;18.07;;
14722;SDS011;7452;55.594;12.986;2022-10-23T04:10:21;38.37;;;18.30;;
14722;SDS011;7452;55.594;12.986;2022-10-23T04:12:50;27.87;;;16.67;;
14722;SDS011;7452;55.594;12.986;2022-10-23T04:15:17;34.27;;;17.07;;
14722;SDS011;7452;55.594;12.986;2022-10-23T04:17:45;34.53;;;16.67;;
14722;SDS011;7452;55.594;12.986;2022-10-23T04:20:13;34.13;;;16.40;;
14722;SDS011;7452;55.594;12.986;2022-10-23T04:23:00;30.53;;;16.40;;
14722;SDS011;7452;55.594;12.986;2022-10-23T04:25:33;31.33;;;14.43;;
14722;SDS011;7452;55.594;12.986;2022-10-23T04:28:02;27.73;;;14.50;;
14722;SDS011;7452;55.594;12.986;2022-10-23T04:30:43;24.90;;;13.53;;
14722;SDS011;7452;55.594;12.986;2022-10-23T04:33:14;26.10;;;13.17;;
14722;SDS011;7452;55.594;12.986;2022-10-23T04:35:45;22.07;;;12.07;;
14722;SDS011;7452;55.594;12.986;2022-10-23T04:38:19;26.27;;;12.93;;
14722;SDS011;7452;55.594;12.986;2022-10-23T04:40:50;25.73;;;12.37;;
14722;SDS011;7452;55.594;12.986;2022-10-23T04:43:19;24.10;;;11.90;;
14722;SDS011;7452;55.594;12.986;2022-10-23T04:45:47;29.97;;;11.70;;
14722;SDS011;7452;55.594;12.986;2022-10-23T04:48:20;30.07;;;12.23;;
14722;SDS011;7452;55.594;12.986;2022-10-23T04:50:54;27.97;;;11.60;;
14722;SDS011;7452;55.594;12.986;2022-10-23T04:53:28;22.77;;;12.00;;
14722;SDS011;7452;55.594;12.986;2022-10-23T04:55:58;18.40;;;10.73;;
14722;SDS011;7452;55.594;12.986;2022-10-23T04:58:30;19.93;;;11.20;;
14722;SDS011;7452;55.594;12.986;2022-10-23T05:00:59;23.40;;;10.63;;
14722;SDS011;7452;55.594;12.986;2022-10-23T05:03:31;25.67;;;9.53;;
14722;SDS011;7452;55.594;12.986;2022-10-23T05:05:58;20.67;;;9.40;;
14722;SDS011;7452;55.594;12.986;2022-10-23T05:08:28;19.30;;;9.30;;
14722;SDS011;7452;55.594;12.986;2022-10-23T05:10:56;19.43;;;9.53;;
14722;SDS011;7452;55.594;12.986;2022-10-23T05:13:24;19.80;;;9.53;;
14722;SDS011;7452;55.594;12.986;2022-10-23T05:15:51;21.80;;;8.83;;
14722;SDS011;7452;55.594;12.986;2022-10-23T05:18:19;18.77;;;9.50;;
14722;SDS011;7452;55.594;12.986;2022-10-23T05:20:51;18.37;;;9.17;;
14722;SDS011;7452;55.594;12.986;2022-10-23T05:23:23;17.47;;;8.90;;
14722;SDS011;7452;55.594;12.986;2022-10-23T05:25:53;19.50;;;9.17;;
14722;SDS011;7452;55.594;12.986;2022-10-23T05:28:21;21.13;;;9.03;;
14722;SDS011;7452;55.594;12.986;2022-10-23T05:30:50;16.50;;;8.37;;
14722;SDS011;7452;55.594;12.986;2022-10-23T05:33:27;21.40;;;8.50;;
14722;SDS011;7452;55.594;12.986;2022-10-23T05:36:00;18.40;;;8.30;;
14722;SDS011;7452;55.594;12.986;2022-10-23T05:38:31;17.63;;;8.43;;
14722;SDS011;7452;55.594;12.986;2022-10-23T05:41:03;19.80;;;8.43;;
14722;SDS011;7452;55.594;12.986;2022-10-23T05:43:33;22.77;;;8.97;;
14722;SDS011;7452;55.594;12.986;2022-10-23T05:46:09;17.20;;;7.60;;
14722;SDS011;7452;55.594;12.986;2022-10-23T05:48:40;21.33;;;8.97;;
14722;SDS011;7452;55.594;12.986;2022-10-23T05:51:08;17.57;;;8.30;;
14722;SDS011;7452;55.594;12.986;2022-10-23T05:53:44;21.63;;;8.30;;
14722;SDS011;7452;55.594;12.986;2022-10-23T05:56:17;16.03;;;8.90;;
14722;SDS011;7452;55.594;12.986;2022-10-23T05:58:46;21.17;;;8.93;;
14722;SDS011;7452;55.594;12.986;2022-10-23T06:01:15;18.47;;;8.47;;
14722;SDS011;7452;55.594;12.986;2022-10-23T06:03:43;15.87;;;8.87;;
14722;SDS011;7452;55.594;12.986;2022-10-23T06:06:14;17.50;;;8.70;;
14722;SDS011;7452;55.594;12.986;2022-10-23T06:08:49;19.63;;;8.93;;
14722;SDS011;7452;55.594;12.986;2022-10-23T06:11:19;22.63;;;9.47;;
14722;SDS011;7452;55.594;12.986;2022-10-23T06:13:47;17.90;;;8.80;;
14722;SDS011;7452;55.594;12.986;2022-10-23T06:16:14;16.43;;;8.63;;
14722;SDS011;7452;55.594;12.986;2022-10-23T06:18:49;22.10;;;9.10;;
14722;SDS011;7452;55.594;12.986;2022-10-23T06:21:17;18.57;;;7.60;;
14722;SDS011;7452;55.594;12.986;2022-10-23T06:23:45;20.23;;;8.40;;
14722;SDS011;7452;55.594;12.986;2022-10-23T06:26:16;15.97;;;7.73;;
14722;SDS011;7452;55.594;12.986;2022-10-23T06:28:51;19.83;;;7.87;;
14722;SDS011;7452;55.594;12.986;2022-10-23T06:31:19;18.43;;;8.17;;
14722;SDS011;7452;55.594;12.986;2022-10-23T06:33:52;17.13;;;8.23;;
14722;SDS011;7452;55.594;12.986;2022-10-23T06:36:23;21.43;;;8.93;;
14722;SDS011;7452;55.594;12.986;2022-10-23T06:38:51;22.23;;;8.53;;
14722;SDS011;7452;55.594;12.986;2022-10-23T06:41:35;16.40;;;8.60;;
14722;SDS011;7452;55.594;12.986;2022-10-23T06:44:09;27.00;;;9.13;;
14722;SDS011;7452;55.594;12.986;2022-10-23T06:46:38;22.13;;;8.87;;
14722;SDS011;7452;55.594;12.986;2022-10-23T06:49:07;22.70;;;8.40;;
14722;SDS011;7452;55.594;12.986;2022-10-23T06:51:38;20.43;;;9.00;;
14722;SDS011;7452;55.594;12.986;2022-10-23T06:54:09;24.17;;;9.43;;
14722;SDS011;7452;55.594;12.986;2022-10-23T06:56:42;20.37;;;8.73;;
14722;SDS011;7452;55.594;12.986;2022-10-23T06:59:09;20.37;;;9.07;;
14722;SDS011;7452;55.594;12.986;2022-10-23T07:01:38;20.73;;;8.77;;
14722;SDS011;7452;55.594;12.986;2022-10-23T07:04:06;27.70;;;9.43;;
14722;SDS011;7452;55.594;12.986;2022-10-23T07:06:38;16.63;;;8.47;;
14722;SDS011;7452;55.594;12.986;2022-10-23T07:09:08;21.67;;;8.47;;
14722;SDS011;7452;55.594;12.986;2022-10-23T07:11:36;18.77;;;8.00;;
14722;SDS011;7452;55.594;12.986;2022-10-23T07:14:07;24.13;;;8.73;;
14722;SDS011;7452;55.594;12.986;2022-10-23T07:16:38;21.90;;;9.03;;
14722;SDS011;7452;55.594;12.986;2022-10-23T07:19:10;24.83;;;8.67;;
14722;SDS011;7452;55.594;12.986;2022-10-23T07:21:45;18.20;;;8.33;;
14722;SDS011;7452;55.594;12.986;2022-10-23T07:24:13;17.97;;;8.03;;
14722;SDS011;7452;55.594;12.986;2022-10-23T07:26:41;22.60;;;9.00;;
14722;SDS011;7452;55.594;12.986;2022-10-23T07:29:11;18.23;;;7.73;;
14722;SDS011;7452;55.594;12.986;2022-10-23T07:31:39;16.17;;;7.10;;
14722;SDS011;7452;55.594;12.986;2022-10-23T07:34:11;18.27;;;7.13;;
14722;SDS011;7452;55.594;12.986;2022-10-23T07:36:39;17.17;;;6.93;;
14722;SDS011;7452;55.594;12.986;2022-10-23T07:39:12;18.37;;;7.30;;
14722;SDS011;7452;55.594;12.986;2022-10-23T07:41:39;16.30;;;7.77;;
14722;SDS011;7452;55.594;12.986;2022-10-23T07:44:08;21.07;;;7.43;;
14722;SDS011;7452;55.594;12.986;2022-10-23T07:46:42;19.87;;;7.47;;
14722;SDS011;7452;55.594;12.986;2022-10-23T07:49:11;19.33;;;7.90;;
14722;SDS011;7452;55.594;12.986;2022-10-23T07:51:42;17.17;;;7.50;;
14722;SDS011;7452;55.594;12.986;2022-10-23T07:54:11;25.60;;;7.77;;
14722;SDS011;7452;55.594;12.986;2022-10-23T07:56:40;16.97;;;7.03;;
14722;SDS011;7452;55.594;12.986;2022-10-23T07:59:12;17.47;;;7.50;;
14722;SDS011;7452;55.594;12.986;2022-10-23T08:01:47;16.83;;;6.77;;
14722;SDS011;7452;55.594;12.986;2022-10-23T08:04:15;15.83;;;6.77;;
14722;SDS011;7452;55.594;12.986;2022-10-23T08:06:47;20.33;;;7.03;;
14722;SDS011;7452;55.594;12.986;2022-10-23T08:09:20;16.33;;;5.87;;
14722;SDS011;7452;55.594;12.986;2022-10-23T08:11:48;19.37;;;6.57;;
14722;SDS011;7452;55.594;12.986;2022-10-23T08:14:17;16.63;;;6.23;;
14722;SDS011;7452;55.594;12.986;2022-10-23T08:16:53;20.53;;;6.20;;
14722;SDS011;7452;55.594;12.986;2022-10-23T08:19:25;18.37;;;6.37;;
14722;SDS011;7452;55.594;12.986;2022-10-23T08:21:53;17.07;;;6.40;;
14722;SDS011;7452;55.594;12.986;2022-10-23T08:24:23;16.60;;;5.97;;
14722;SDS011;7452;55.594;12.986;2022-10-23T08:26:51;12.87;;;5.53;;
14722;SDS011;7452;55.594;12.986;2022-10-23T08:29:23;13.47;;;5.50;;
14722;SDS011;7452;55.594;12.986;2022-10-23T08:31:54;17.97;;;5.30;;
14722;SDS011;7452;55.594;12.986;2022-10-23T08:34:26;17.73;;;5.93;;
14722;SDS011;7452;55.594;12.986;2022-10-23T08:36:54;18.33;;;5.50;;
14722;SDS011;7452;55.594;12.986;2022-10-23T08:39:33;11.00;;;5.17;;
14722;SDS011;7452;55.594;12.986;2022-10-23T08:42:02;14.90;;;4.93;;
14722;SDS011;7452;55.594;12.986;2022-10-23T08:44:31;13.43;;;5.77;;
14722;SDS011;7452;55.594;12.986;2022-10-23T08:47:04;11.00;;;5.30;;
14722;SDS011;7452;55.594;12.986;2022-10-23T08:49:42;9.43;;;4.60;;
14722;SDS011;7452;55.594;12.986;2022-10-23T08:52:16;15.07;;;5.07;;
14722;SDS011;7452;55.594;12.986;2022-10-23T08:55:03;13.43;;;5.47;;
14722;SDS011;7452;55.594;12.986;2022-10-23T08:57:39;16.90;;;5.90;;
14722;SDS011;7452;55.594;12.986;2022-10-23T09:00:17;11.90;;;5.53;;
14722;SDS011;7452;55.594;12.986;2022-10-23T09:02:46;13.57;;;6.63;;
14722;SDS011;7452;55.594;12.986;2022-10-23T09:05:16;14.23;;;6.23;;
14722;SDS011;7452;55.594;12.986;2022-10-23T09:07:57;14.77;;;6.37;;
14722;SDS011;7452;55.594;12.986;2022-10-23T09:10:33;19.27;;;6.17;;
14722;SDS011;7452;55.594;12.986;2022-10-23T09:13:19;13.50;;;5.70;;
14722;SDS011;7452;55.594;12.986;2022-10-23T09:16:06;12.43;;;5.20;;
14722;SDS011;7452;55.594;12.986;2022-10-23T09:18:47;13.70;;;5.30;;
14722;SDS011;7452;55.594;12.986;2022-10-23T09:21:18;12.17;;;4.60;;
14722;SDS011;7452;55.594;12.986;2022-10-23T09:23:47;12.53;;;3.90;;
14722;SDS011;7452;55.594;12.986;2022-10-23T09:26:20;16.67;;;4.50;;
14722;SDS011;7452;55.594;12.986;2022-10-23T09:28:56;11.67;;;4.00;;
14722;SDS011;7452;55.594;12.986;2022-10-23T09:31:47;13.93;;;4.03;;
14722;SDS011;7452;55.594;12.986;2022-10-23T09:34:17;12.53;;;4.13;;
14722;SDS011;7452;55.594;12.986;2022-10-23T09:39:43;17.37;;;4.80;;
14722;SDS011;7452;55.594;12.986;2022-10-23T09:42:13;16.70;;;4.73;;
14722;SDS011;7452;55.594;12.986;2022-10-23T09:44:50;12.50;;;4.30;;
14722;SDS011;7452;55.594;12.986;2022-10-23T09:47:41;14.80;;;5.00;;
14722;SDS011;7452;55.594;12.986;2022-10-23T09:50:17;13.83;;;4.33;;
14722;SDS011;7452;55.594;12.986;2022-10-23T09:52:48;15.37;;;5.40;;
14722;SDS011;7452;55.594;12.986;2022-10-23T09:55:24;16.43;;;6.37;;
14722;SDS011;7452;55.594;12.986;2022-10-23T09:57:52;14.07;;;6.53;;
14722;SDS011;7452;55.594;12.986;2022-10-23T10:00:23;15.03;;;6.73;;
14722;SDS011;7452;55.594;12.986;2022-10-23T10:02:58;15.30;;;7.03;;
14722;SDS011;7452;55.594;12.986;2022-10-23T10:05:27;17.17;;;7.47;;
14722;SDS011;7452;55.594;12.986;2022-10-23T10:07:57;17.53;;;7.60;;
14722;SDS011;7452;55.594;12.986;2022-10-23T10:10:32;16.17;;;7.27;;
14722;SDS011;7452;55.594;12.986;2022-10-23T10:13:06;15.50;;;7.83;;
14722;SDS011;7452;55.594;12.986;2022-10-23T10:15:54;17.90;;;8.13;;
14722;SDS011;7452;55.594;12.986;2022-10-23T10:18:30;16.20;;;7.27;;
14722;SDS011;7452;55.594;12.986;2022-10-23T10:21:06;15.23;;;7.87;;
14722;SDS011;7452;55.594;12.986;2022-10-23T10:23:44;16.97;;;7.43;;
14722;SDS011;7452;55.594;12.986;2022-10-23T10:26:21;14.13;;;7.23;;
14722;SDS011;7452;55.594;12.986;2022-10-23T10:28:59;18.63;;;6.80;;
14722;SDS011;7452;55.594;12.986;2022-10-23T10:31:40;15.87;;;6.60;;
14722;SDS011;7452;55.594;12.986;2022-10-23T10:34:20;15.23;;;6.30;;
14722;SDS011;7452;55.594;12.986;2022-10-23T10:36:57;16.17;;;6.53;;
14722;SDS011;7452;55.594;12.986;2022-10-23T10:39:34;11.93;;;6.07;;
14722;SDS011;7452;55.594;12.986;2022-10-23T10:42:15;14.40;;;6.73;;
14722;SDS011;7452;55.594;12.986;2022-10-23T10:45:13;14.17;;;5.87;;
14722;SDS011;7452;55.594;12.986;2022-10-23T10:48:05;14.67;;;7.33;;
14722;SDS011;7452;55.594;12.986;2022-10-23T10:50:51;19.60;;;6.97;;
14722;SDS011;7452;55.594;12.986;2022-10-23T10:53:23;16.90;;;6.30;;
14722;SDS011;7452;55.594;12.986;2022-10-23T10:55:57;16.10;;;6.67;;
14722;SDS011;7452;55.594;12.986;2022-10-23T10:58:29;19.87;;;7.00;;
14722;SDS011;7452;55.594;12.986;2022-10-23T11:01:04;17.17;;;7.10;;
14722;SDS011;7452;55.594;12.986;2022-10-23T11:03:40;16.80;;;6.23;;
14722;SDS011;7452;55.594;12.986;2022-10-23T11:06:17;15.43;;;6.47;;
14722;SDS011;7452;55.594;12.986;2022-10-23T11:08:49;15.93;;;6.63;;
14722;SDS011;7452;55.594;12.986;2022-10-23T11:11:19;12.43;;;5.93;;
14722;SDS011;7452;55.594;12.986;2022-10-23T11:13:50;16.23;;;5.77;;
14722;SDS011;7452;55.594;12.986;2022-10-23T11:16:19;10.93;;;4.57;;
14722;SDS011;7452;55.594;12.986;2022-10-23T11:18:55;14.37;;;4.57;;
14722;SDS011;7452;55.594;12.986;2022-10-23T11:21:34;9.50;;;4.33;;
14722;SDS011;7452;55.594;12.986;2022-10-23T11:27:09;13.80;;;3.93;;
14722;SDS011;7452;55.594;12.986;2022-10-23T11:36:05;7.30;;;2.93;;
14722;SDS011;7452;55.594;12.986;2022-10-23T11:38:41;10.00;;;3.13;;
14722;SDS011;7452;55.594;12.986;2022-10-23T11:41:17;6.77;;;2.73;;
14722;SDS011;7452;55.594;12.986;2022-10-23T11:43:47;9.23;;;3.00;;
14722;SDS011;7452;55.594;12.986;2022-10-23T11:46:27;10.97;;;3.30;;
14722;SDS011;7452;55.594;12.986;2022-10-23T11:48:56;9.97;;;3.23;;
14722;SDS011;7452;55.594;12.986;2022-10-23T11:51:27;12.60;;;3.50;;
14722;SDS011;7452;55.594;12.986;2022-10-23T11:54:06;13.53;;;3.40;;
14722;SDS011;7452;55.594;12.986;2022-10-23T11:56:52;7.97;;;2.57;;
14722;SDS011;7452;55.594;12.986;2022-10-23T11:59:24;6.33;;;2.77;;
14722;SDS011;7452;55.594;12.986;2022-10-23T12:01:56;5.80;;;3.13;;
14722;SDS011;7452;55.594;12.986;2022-10-23T12:04:26;12.33;;;3.33;;
14722;SDS011;7452;55.594;12.986;2022-10-23T12:07:12;8.13;;;2.97;;
14722;SDS011;7452;55.594;12.986;2022-10-23T12:12:35;11.00;;;3.40;;
14722;SDS011;7452;55.594;12.986;2022-10-23T12:15:06;14.40;;;3.30;;
14722;SDS011;7452;55.594;12.986;2022-10-23T12:17:49;9.93;;;3.23;;
14722;SDS011;7452;55.594;12.986;2022-10-23T12:23:08;12.73;;;3.03;;
14722;SDS011;7452;55.594;12.986;2022-10-23T12:25:58;10.03;;;2.90;;
14722;SDS011;7452;55.594;12.986;2022-10-23T12:28:44;10.67;;;3.30;;
14722;SDS011;7452;55.594;12.986;2022-10-23T12:31:22;12.73;;;3.33;;
14722;SDS011;7452;55.594;12.986;2022-10-23T12:34:00;11.97;;;3.33;;
14722;SDS011;7452;55.594;12.986;2022-10-23T12:36:44;9.07;;;3.40;;
14722;SDS011;7452;55.594;12.986;2022-10-23T12:39:27;11.20;;;3.80;;
14722;SDS011;7452;55.594;12.986;2022-10-23T12:41:57;9.47;;;3.70;;
14722;SDS011;7452;55.594;12.986;2022-10-23T12:44:26;12.87;;;3.93;;
14722;SDS011;7452;55.594;12.986;2022-10-23T12:46:56;13.57;;;4.10;;
14722;SDS011;7452;55.594;12.986;2022-10-23T12:49:27;18.57;;;4.60;;
14722;SDS011;7452;55.594;12.986;2022-10-23T12:51:59;15.57;;;4.37;;
14722;SDS011;7452;55.594;12.986;2022-10-23T12:54:29;16.30;;;4.20;;
14722;SDS011;7452;55.594;12.986;2022-10-23T12:56:59;17.90;;;3.80;;
14722;SDS011;7452;55.594;12.986;2022-10-23T12:59:27;9.57;;;3.10;;
14722;SDS011;7452;55.594;12.986;2022-10-23T13:02:01;13.17;;;3.20;;
14722;SDS011;7452;55.594;12.986;2022-10-23T13:04:39;14.00;;;3.37;;
14722;SDS011;7452;55.594;12.986;2022-10-23T13:07:06;13.00;;;3.10;;
14722;SDS011;7452;55.594;12.986;2022-10-23T13:09:37;12.27;;;3.80;;
14722;SDS011;7452;55.594;12.986;2022-10-23T13:12:13;9.23;;;3.07;;
14722;SDS011;7452;55.594;12.986;2022-10-23T13:14:54;9.80;;;3.03;;
14722;SDS011;7452;55.594;12.986;2022-10-23T13:17:32;6.50;;;2.90;;
14722;SDS011;7452;55.594;12.986;2022-10-23T13:20:15;11.67;;;3.90;;
14722;SDS011;7452;55.594;12.986;2022-10-23T13:22:46;14.33;;;4.60;;
14722;SDS011;7452;55.594;12.986;2022-10-23T13:25:22;10.67;;;3.57;;
14722;SDS011;7452;55.594;12.986;2022-10-23T13:27:51;10.97;;;4.10;;
14722;SDS011;7452;55.594;12.986;2022-10-23T13:30:45;11.27;;;3.53;;
14722;SDS011;7452;55.594;12.986;2022-10-23T13:33:32;10.17;;;3.93;;
14722;SDS011;7452;55.594;12.986;2022-10-23T13:36:02;11.67;;;3.50;;
14722;SDS011;7452;55.594;12.986;2022-10-23T13:38:32;10.77;;;3.57;;
14722;SDS011;7452;55.594;12.986;2022-10-23T13:41:04;13.50;;;3.60;;
14722;SDS011;7452;55.594;12.986;2022-10-23T13:43:38;12.33;;;3.50;;
14722;SDS011;7452;55.594;12.986;2022-10-23T13:46:10;13.60;;;3.60;;
14722;SDS011;7452;55.594;12.986;2022-10-23T13:48:39;9.77;;;3.37;;
14722;SDS011;7452;55.594;12.986;2022-10-23T13:51:09;12.80;;;3.57;;
14722;SDS011;7452;55.594;12.986;2022-10-23T13:53:38;10.70;;;3.30;;
14722;SDS011;7452;55.594;12.986;2022-10-23T13:56:07;22.13;;;14.20;;
14722;SDS011;7452;55.594;12.986;2022-10-23T13:58:38;14.27;;;8.33;;
14722;SDS011;7452;55.594;12.986;2022-10-23T14:01:11;13.33;;;3.47;;
14722;SDS011;7452;55.594;12.986;2022-10-23T14:03:43;12.00;;;3.80;;
14722;SDS011;7452;55.594;12.986;2022-10-23T14:06:11;11.53;;;3.50;;
14722;SDS011;7452;55.594;12.986;2022-10-23T14:08:38;10.87;;;3.53;;
14722;SDS011;7452;55.594;12.986;2022-10-23T14:11:05;8.87;;;2.77;;
14722;SDS011;7452;55.594;12.986;2022-10-23T14:13:32;15.73;;;4.00;;
14722;SDS011;7452;55.594;12.986;2022-10-23T14:16:03;15.07;;;3.90;;
14722;SDS011;7452;55.594;12.986;2022-10-23T14:18:30;10.53;;;3.60;;
14722;SDS011;7452;55.594;12.986;2022-10-23T14:20:58;11.17;;;3.23;;
14722;SDS011;7452;55.594;12.986;2022-10-23T14:23:27;11.97;;;4.17;;
14722;SDS011;7452;55.594;12.986;2022-10-23T14:26:00;13.83;;;4.10;;
14722;SDS011;7452;55.594;12.986;2022-10-23T14:28:27;12.47;;;4.27;;
14722;SDS011;7452;55.594;12.986;2022-10-23T14:30:54;11.97;;;3.57;;
14722;SDS011;7452;55.594;12.986;2022-10-23T14:33:24;18.10;;;8.27;;
14722;SDS011;7452;55.594;12.986;2022-10-23T14:35:53;10.50;;;4.47;;
14722;SDS011;7452;55.594;12.986;2022-10-23T14:38:21;10.50;;;3.87;;
14722;SDS011;7452;55.594;12.986;2022-10-23T14:40:48;9.63;;;3.50;;
14722;SDS011;7452;55.594;12.986;2022-10-23T14:43:15;10.27;;;3.40;;
14722;SDS011;7452;55.594;12.986;2022-10-23T14:45:43;12.23;;;3.50;;
14722;SDS011;7452;55.594;12.986;2022-10-23T14:48:10;12.87;;;3.83;;
14722;SDS011;7452;55.594;12.986;2022-10-23T14:50:42;12.70;;;4.20;;
14722;SDS011;7452;55.594;12.986;2022-10-23T14:53:10;15.03;;;4.30;;
14722;SDS011;7452;55.594;12.986;2022-10-23T14:55:40;11.37;;;4.07;;
14722;SDS011;7452;55.594;12.986;2022-10-23T14:58:07;11.37;;;3.80;;
14722;SDS011;7452;55.594;12.986;2022-10-23T15:00:34;14.77;;;4.03;;
14722;SDS011;7452;55.594;12.986;2022-10-23T15:03:01;10.80;;;3.67;;
14722;SDS011;7452;55.594;12.986;2022-10-23T15:05:29;14.97;;;4.13;;
14722;SDS011;7452;55.594;12.986;2022-10-23T15:07:57;16.93;;;5.60;;
14722;SDS011;7452;55.594;12.986;2022-10-23T15:10:27;8.57;;;3.90;;
14722;SDS011;7452;55.594;12.986;2022-10-23T15:12:55;14.97;;;3.83;;
14722;SDS011;7452;55.594;12.986;2022-10-23T15:15:22;14.33;;;4.43;;
14722;SDS011;7452;55.594;12.986;2022-10-23T15:17:49;14.07;;;4.20;;
14722;SDS011;7452;55.594;12.986;2022-10-23T15:20:16;12.03;;;4.40;;
14722;SDS011;7452;55.594;12.986;2022-10-23T15:22:43;9.70;;;4.40;;
14722;SDS011;7452;55.594;12.986;2022-10-23T15:25:14;19.10;;;4.60;;
14722;SDS011;7452;55.594;12.986;2022-10-23T15:27:43;12.10;;;4.80;;